createdAt,value
2018-04-02T00:00:18.637Z,45.40
2018-04-02T00:02:47.641Z,46.85
2018-04-02T00:05:15.607Z,45.78
2018-04-02T00:07:43.632Z,47.33
2018-04-02T00:10:11.560Z,43.42
2018-04-02T00:12:39.567Z,46.72
2018-04-02T00:15:07.571Z,37.78
2018-04-02T00:17:35.512Z,43.35
2018-04-02T00:20:03.499Z,45.22
2018-04-02T00:22:31.447Z,40.85
2018-04-02T00:24:59.432Z,49.38
2018-04-02T00:27:27.468Z,49.97
2018-04-02T00:29:55.464Z,41.30
2018-04-02T00:32:23.432Z,43.17
2018-04-02T00:34:51.424Z,53.25
2018-04-02T00:37:19.409Z,43.63
2018-04-02T00:39:47.396Z,44.33
2018-04-02T00:42:15.451Z,41.05
2018-04-02T00:44:43.449Z,51.67
2018-04-02T00:47:11.433Z,39.63
2018-04-02T00:49:39.417Z,38.92
2018-04-02T00:52:07.400Z,49.30
2018-04-02T00:54:35.368Z,44.53
2018-04-02T00:57:03.336Z,56.35
2018-04-02T00:59:31.348Z,40.53
2018-04-02T01:01:59.324Z,55.60
2018-04-02T01:04:27.308Z,46.90
2018-04-02T01:06:55.282Z,45.33
2018-04-02T01:09:23.256Z,49.35
2018-04-02T01:11:52.326Z,50.67
2018-04-02T01:14:20.331Z,49.05
2018-04-02T01:16:48.292Z,52.40
2018-04-02T01:19:16.294Z,44.60
2018-04-02T01:21:44.248Z,39.17
2018-04-02T01:24:12.204Z,36.97
2018-04-02T01:26:40.195Z,43.55
2018-04-02T01:29:08.190Z,48.13
2018-04-02T01:31:36.209Z,44.63
2018-04-02T01:34:04.206Z,40.88
2018-04-02T01:36:32.190Z,45.90
2018-04-02T01:39:00.165Z,43.72
2018-04-02T01:41:28.200Z,42.47
2018-04-02T01:43:56.211Z,44.58
2018-04-02T01:46:24.186Z,42.25
2018-04-02T01:48:52.181Z,39.97
2018-04-02T01:51:20.160Z,40.53
2018-04-02T01:53:48.142Z,40.95
2018-04-02T01:56:16.139Z,54.78
2018-04-02T01:58:44.111Z,40.40
2018-04-02T02:01:12.045Z,36.67
2018-04-02T02:03:40.060Z,35.08
2018-04-02T02:06:08.038Z,45.58
2018-04-02T02:08:35.976Z,35.40
2018-04-02T02:11:03.979Z,39.05
2018-04-02T02:13:31.960Z,40.12
2018-04-02T02:15:59.955Z,40.72
2018-04-02T02:18:27.948Z,35.40
2018-04-02T02:20:55.932Z,41.03
2018-04-02T02:23:23.958Z,40.75
2018-04-02T02:25:51.892Z,44.38
2018-04-02T02:28:19.877Z,42.28
2018-04-02T02:30:47.805Z,35.75
2018-04-02T02:33:15.805Z,46.60
2018-04-02T02:35:43.743Z,36.30
2018-04-02T02:38:11.706Z,41.90
2018-04-02T02:40:39.709Z,44.45
2018-04-02T02:43:07.640Z,38.85
2018-04-02T02:45:35.646Z,40.97
2018-04-02T02:48:03.679Z,40.38
2018-04-02T02:50:31.648Z,35.90
2018-04-02T02:52:59.583Z,36.78
2018-04-02T02:55:27.558Z,36.63
2018-04-02T02:57:55.550Z,44.85
2018-04-02T03:00:23.540Z,43.13
2018-04-02T03:02:51.877Z,42.95
2018-04-02T03:05:19.852Z,43.90
2018-04-02T03:07:47.880Z,39.75
2018-04-02T03:10:15.876Z,38.65
2018-04-02T03:12:43.829Z,33.08
2018-04-02T03:15:11.820Z,46.58
2018-04-02T03:17:39.798Z,37.65
2018-04-02T03:20:07.792Z,44.78
2018-04-02T03:22:35.782Z,48.85
2018-04-02T03:25:03.764Z,43.72
2018-04-02T03:27:31.718Z,41.22
2018-04-02T03:29:59.676Z,45.53
2018-04-02T03:32:27.685Z,43.25
2018-04-02T03:34:55.640Z,44.08
2018-04-02T03:37:23.636Z,44.10
2018-04-02T03:39:51.624Z,43.47
2018-04-02T03:42:19.588Z,41.53
2018-04-02T03:44:47.564Z,41.95
2018-04-02T03:47:15.560Z,39.85
2018-04-02T03:49:43.540Z,44.50
2018-04-02T03:52:12.548Z,42.50
2018-04-02T03:54:40.540Z,37.80
2018-04-02T03:57:09.501Z,42.60
2018-04-02T03:59:37.508Z,41.10
2018-04-02T04:02:05.520Z,37.28
2018-04-02T04:04:33.476Z,41.15
2018-04-02T04:07:01.452Z,41.92
2018-04-02T04:09:29.420Z,44.05
2018-04-02T04:11:57.404Z,38.10
2018-04-02T04:14:25.408Z,34.92
2018-04-02T04:16:53.422Z,42.30
2018-04-02T04:19:21.386Z,35.35
2018-04-02T04:21:49.361Z,46.88
2018-04-02T04:24:17.372Z,41.03
2018-04-02T04:26:46.368Z,37.55
2018-04-02T04:29:15.432Z,33.72
2018-04-02T04:31:43.426Z,38.22
2018-04-02T04:34:12.421Z,36.70
2018-04-02T04:36:40.393Z,36.95
2018-04-02T04:39:08.404Z,39.90
2018-04-02T04:41:37.395Z,38.78
2018-04-02T04:44:05.340Z,32.53
2018-04-02T04:46:33.328Z,35.30
2018-04-02T04:49:01.345Z,40.95
2018-04-02T04:51:29.350Z,43.25
2018-04-02T04:53:57.356Z,43.03
2018-04-02T04:56:25.358Z,33.22
2018-04-02T04:58:53.312Z,33.97
2018-04-02T05:01:21.275Z,36.60
2018-04-02T05:03:49.236Z,32.20
2018-04-02T05:06:17.219Z,36.28
2018-04-02T05:08:45.220Z,35.88
2018-04-02T05:11:13.222Z,30.02
2018-04-02T05:13:41.253Z,30.08
2018-04-02T05:16:09.249Z,39.83
2018-04-02T05:18:37.231Z,33.55
2018-04-02T05:21:06.200Z,31.60
2018-04-02T05:23:34.250Z,35.92
2018-04-02T05:26:02.263Z,35.58
2018-04-02T05:28:30.308Z,33.80
2018-04-02T05:30:58.283Z,36.67
2018-04-02T05:33:26.249Z,36.90
2018-04-02T05:35:54.232Z,28.58
2018-04-02T05:38:22.208Z,38.40
2018-04-02T05:40:50.143Z,30.05
2018-04-02T05:43:18.128Z,36.80
2018-04-02T05:45:46.079Z,40.53
2018-04-02T05:48:14.056Z,26.77
2018-04-02T05:50:43.104Z,35.92
2018-04-02T05:53:11.076Z,33.92
2018-04-02T05:55:39.063Z,33.15
2018-04-02T05:58:07.036Z,30.62
2018-04-02T06:00:35.019Z,30.92
2018-04-02T06:03:03.072Z,32.80
2018-04-02T06:05:31.051Z,31.60
2018-04-02T06:07:59.049Z,30.48
2018-04-02T06:10:27.045Z,38.50
2018-04-02T06:12:55.039Z,34.45
2018-04-02T06:15:23.048Z,32.67
2018-04-02T06:17:51.044Z,33.30
2018-04-02T06:20:19.028Z,39.47
2018-04-02T06:22:47.105Z,34.13
2018-04-02T06:25:15.088Z,30.50
2018-04-02T06:27:43.065Z,32.17
2018-04-02T06:30:11.041Z,33.55
2018-04-02T06:32:39.069Z,31.50
2018-04-02T06:35:07.049Z,128.25
2018-04-02T06:37:35.105Z,31.55
2018-04-02T06:40:03.065Z,32.85
2018-04-02T06:42:31.048Z,36.50
2018-04-02T06:44:59.040Z,32.45
2018-04-02T06:47:28.039Z,32.70
2018-04-02T06:49:55.983Z,28.42
2018-04-02T06:52:23.998Z,28.65
2018-04-02T06:54:51.978Z,33.53
2018-04-02T06:57:19.956Z,28.05
2018-04-02T06:59:47.993Z,29.58
2018-04-02T07:02:15.972Z,27.05
2018-04-02T07:04:43.964Z,24.30
2018-04-02T07:07:11.960Z,34.97
2018-04-02T07:09:39.948Z,27.75
2018-04-02T07:12:08.080Z,26.65
2018-04-02T07:14:36.075Z,28.12
2018-04-02T07:17:06.134Z,29.92
2018-04-02T07:19:34.131Z,26.17
2018-04-02T07:22:02.128Z,25.77
2018-04-02T07:24:30.112Z,24.55
2018-04-02T07:26:58.059Z,25.50
2018-04-02T07:29:26.085Z,24.12
2018-04-02T07:31:54.008Z,26.67
2018-04-02T07:34:22.013Z,25.15
2018-04-02T07:36:50.020Z,26.87
2018-04-02T07:39:18.005Z,29.83
2018-04-02T07:41:45.996Z,24.45
2018-04-02T07:44:14.009Z,26.48
2018-04-02T07:46:42.001Z,31.80
2018-04-02T07:49:10.015Z,24.77
2018-04-02T07:51:38.047Z,23.25
2018-04-02T07:54:06.068Z,27.80
2018-04-02T07:56:34.052Z,25.17
2018-04-02T07:59:02.051Z,23.75
2018-04-02T08:01:30.029Z,25.27
2018-04-02T08:03:58.077Z,25.95
2018-04-02T08:06:26.094Z,24.12
2018-04-02T08:08:54.111Z,24.50
2018-04-02T08:11:22.078Z,23.90
2018-04-02T08:13:51.180Z,26.65
2018-04-02T08:16:19.165Z,27.60
2018-04-02T08:18:47.146Z,22.50
2018-04-02T08:21:15.170Z,25.17
2018-04-02T08:23:43.168Z,25.77
2018-04-02T08:26:11.145Z,18.63
2018-04-02T08:28:39.153Z,22.87
2018-04-02T08:31:07.143Z,23.63
2018-04-02T08:33:35.114Z,22.70
2018-04-02T08:36:03.086Z,22.07
2018-04-02T08:38:31.044Z,19.10
2018-04-02T08:40:59.049Z,20.90
2018-04-02T08:43:28.064Z,20.03
2018-04-02T08:45:56.027Z,20.10
2018-04-02T08:48:24.059Z,18.87
2018-04-02T08:50:52.024Z,19.33
2018-04-02T08:53:19.955Z,16.17
2018-04-02T08:55:47.930Z,19.63
2018-04-02T08:58:15.928Z,18.00
2018-04-02T09:00:43.931Z,17.10
2018-04-02T09:03:11.848Z,16.27
2018-04-02T09:05:39.816Z,16.03
2018-04-02T09:08:07.757Z,16.83
2018-04-02T09:10:35.779Z,16.60
2018-04-02T09:13:03.769Z,15.30
2018-04-02T09:15:31.723Z,17.23
2018-04-02T09:17:59.968Z,15.63
2018-04-02T09:20:28.006Z,17.30
2018-04-02T09:22:56.012Z,14.57
2018-04-02T09:25:23.980Z,19.67
2018-04-02T09:27:52.001Z,14.47
2018-04-02T09:30:19.936Z,16.43
2018-04-02T09:32:47.892Z,12.87
2018-04-02T09:35:15.884Z,15.77
2018-04-02T09:37:43.880Z,15.50
2018-04-02T09:40:11.864Z,16.93
2018-04-02T09:42:39.814Z,14.13
2018-04-02T09:45:07.797Z,15.93
2018-04-02T09:47:35.743Z,13.93
2018-04-02T09:50:04.760Z,13.37
2018-04-02T09:52:32.739Z,15.37
2018-04-02T09:55:00.680Z,16.87
2018-04-02T09:57:28.679Z,14.27
2018-04-02T09:59:56.672Z,18.33
2018-04-02T10:02:24.648Z,16.20
2018-04-02T10:04:55.700Z,14.60
2018-04-02T10:07:23.552Z,10.40
2018-04-02T10:09:51.608Z,13.33
2018-04-02T10:12:19.562Z,10.57
2018-04-02T10:14:47.539Z,11.33
2018-04-02T10:17:15.537Z,11.37
2018-04-02T10:19:43.599Z,10.77
2018-04-02T10:22:11.544Z,11.83
2018-04-02T10:24:39.564Z,63.23
2018-04-02T10:27:07.546Z,10.67
2018-04-02T10:29:35.598Z,9.53
2018-04-02T10:32:03.563Z,10.87
2018-04-02T10:34:32.052Z,10.23
2018-04-02T10:37:00.040Z,14.53
2018-04-02T10:39:28.682Z,13.30
2018-04-02T10:41:56.671Z,16.17
2018-04-02T10:44:24.667Z,17.93
2018-04-02T10:46:52.640Z,9.27
2018-04-02T10:49:20.644Z,10.20
2018-04-02T10:51:48.728Z,14.30
2018-04-02T10:54:17.455Z,12.50
2018-04-02T10:56:46.595Z,9.80
2018-04-02T10:59:14.612Z,11.30
2018-04-02T11:01:42.571Z,9.20
2018-04-02T11:04:10.584Z,7.90
2018-04-02T11:06:38.549Z,11.00
2018-04-02T11:09:06.503Z,9.10
2018-04-02T11:11:34.484Z,11.07
2018-04-02T11:14:02.520Z,10.37
2018-04-02T11:16:30.523Z,8.07
2018-04-02T11:18:58.517Z,7.20
2018-04-02T11:21:26.548Z,8.80
2018-04-02T11:23:54.536Z,7.10
2018-04-02T11:26:22.557Z,7.77
2018-04-02T11:28:50.587Z,9.60
2018-04-02T11:31:18.580Z,9.33
2018-04-02T11:33:46.592Z,5.60
2018-04-02T11:36:14.581Z,8.80
2018-04-02T11:38:42.575Z,6.73
2018-04-02T11:41:10.596Z,6.20
2018-04-02T11:43:38.560Z,5.90
2018-04-02T11:46:06.533Z,6.07
2018-04-02T11:48:34.516Z,5.20
2018-04-02T11:51:02.527Z,5.47
2018-04-02T11:53:30.525Z,7.03
2018-04-02T11:55:58.509Z,8.93
2018-04-02T11:58:26.484Z,5.80
2018-04-02T12:00:54.476Z,5.70
2018-04-02T12:03:22.439Z,8.03
2018-04-02T12:05:50.379Z,5.67
2018-04-02T12:08:18.375Z,5.40
2018-04-02T12:10:46.371Z,6.80
2018-04-02T12:13:14.331Z,6.63
2018-04-02T12:15:42.314Z,4.80
2018-04-02T12:18:10.328Z,5.00
2018-04-02T12:20:39.336Z,5.40
2018-04-02T12:23:07.300Z,5.83
2018-04-02T12:25:35.248Z,5.73
2018-04-02T12:28:03.239Z,5.10
2018-04-02T12:30:31.253Z,5.93
2018-04-02T12:32:59.211Z,6.10
2018-04-02T12:35:27.207Z,6.57
2018-04-02T12:37:55.215Z,8.33
2018-04-02T12:40:23.296Z,7.57
2018-04-02T12:42:51.267Z,7.23
2018-04-02T12:45:19.256Z,6.50
2018-04-02T12:47:47.257Z,7.80
2018-04-02T12:50:15.236Z,4.60
2018-04-02T12:52:43.223Z,8.23
2018-04-02T12:55:12.269Z,5.00
2018-04-02T12:57:40.270Z,5.10
2018-04-02T13:00:09.247Z,5.33
2018-04-02T13:02:37.216Z,5.23
2018-04-02T13:05:05.223Z,5.80
2018-04-02T13:07:33.203Z,4.23
2018-04-02T13:10:01.228Z,8.13
2018-04-02T13:12:29.199Z,6.67
2018-04-02T13:14:57.143Z,6.93
2018-04-02T13:17:25.191Z,4.10
2018-04-02T13:19:53.174Z,5.00
2018-04-02T13:22:21.155Z,8.30
2018-04-02T13:24:49.180Z,7.50
2018-04-02T13:27:17.092Z,5.00
2018-04-02T13:29:45.105Z,5.40
2018-04-02T13:32:13.148Z,9.83
2018-04-02T13:34:41.136Z,5.17
2018-04-02T13:37:09.144Z,4.63
2018-04-02T13:39:37.124Z,6.53
2018-04-02T13:42:05.088Z,4.60
2018-04-02T13:44:33.080Z,6.70
2018-04-02T13:47:01.057Z,4.70
2018-04-02T13:49:29.084Z,5.00
2018-04-02T13:51:57.085Z,5.93
2018-04-02T13:54:25.073Z,6.67
2018-04-02T13:56:53.045Z,7.43
2018-04-02T13:59:21.032Z,5.13
2018-04-02T14:01:49.029Z,4.10
2018-04-02T14:04:17.020Z,4.87
2018-04-02T14:06:45.081Z,4.30
2018-04-02T14:09:13.104Z,4.47
2018-04-02T14:11:41.088Z,4.37
2018-04-02T14:14:09.064Z,4.40
2018-04-02T14:16:37.048Z,3.83
2018-04-02T14:19:05.006Z,4.53
2018-04-02T14:21:32.976Z,3.70
2018-04-02T14:24:00.964Z,2.90
2018-04-02T14:26:28.957Z,2.63
2018-04-02T14:28:57.001Z,6.80
2018-04-02T14:31:24.995Z,2.40
2018-04-02T14:33:52.960Z,4.17
2018-04-02T14:36:21.250Z,5.83
2018-04-02T14:38:49.268Z,3.17
2018-04-02T14:41:17.276Z,5.90
2018-04-02T14:43:45.252Z,5.17
2018-04-02T14:46:13.266Z,3.23
2018-04-02T14:48:41.243Z,4.53
2018-04-02T14:51:09.216Z,5.03
2018-04-02T14:53:37.192Z,4.80
2018-04-02T14:56:06.289Z,3.93
2018-04-02T14:58:34.297Z,4.33
2018-04-02T15:01:02.326Z,3.23
2018-04-02T15:03:30.320Z,5.63
2018-04-02T15:05:58.265Z,3.63
2018-04-02T15:08:26.298Z,5.80
2018-04-02T15:10:54.257Z,3.90
2018-04-02T15:13:22.243Z,8.60
2018-04-02T15:15:50.223Z,5.73
2018-04-02T15:18:18.184Z,5.83
2018-04-02T15:20:46.152Z,5.93
2018-04-02T15:23:14.166Z,5.60
2018-04-02T15:25:42.171Z,4.37
2018-04-02T15:28:10.171Z,7.80
2018-04-02T15:30:38.173Z,2.70
2018-04-02T15:33:07.241Z,3.50
2018-04-02T15:35:35.218Z,5.03
2018-04-02T15:38:03.200Z,4.10
2018-04-02T15:40:31.180Z,2.90
2018-04-02T15:42:59.115Z,1.93
2018-04-02T15:45:27.107Z,3.07
2018-04-02T15:47:56.535Z,3.20
2018-04-02T15:50:24.652Z,2.93
2018-04-02T15:52:52.624Z,3.70
2018-04-02T15:55:20.622Z,4.83
2018-04-02T15:57:48.572Z,3.47
2018-04-02T16:00:16.552Z,3.10
2018-04-02T16:02:44.542Z,3.43
2018-04-02T16:05:12.520Z,2.80
2018-04-02T16:07:40.524Z,2.17
2018-04-02T16:10:08.520Z,2.33
2018-04-02T16:12:36.508Z,3.03
2018-04-02T16:15:04.517Z,3.80
2018-04-02T16:17:32.533Z,5.30
2018-04-02T16:20:00.511Z,5.33
2018-04-02T16:22:28.521Z,3.30
2018-04-02T16:24:56.475Z,5.33
2018-04-02T16:27:24.449Z,3.03
2018-04-02T16:29:52.458Z,2.17
2018-04-02T16:32:20.403Z,2.30
2018-04-02T16:34:48.453Z,5.73
2018-04-02T16:37:16.477Z,2.33
2018-04-02T16:39:44.448Z,3.57
2018-04-02T16:42:12.415Z,2.67
2018-04-02T16:44:40.590Z,5.37
2018-04-02T16:47:09.613Z,2.80
2018-04-02T16:49:37.581Z,3.40
2018-04-02T16:52:05.584Z,2.77
2018-04-02T16:54:33.580Z,2.40
2018-04-02T16:57:01.555Z,2.00
2018-04-02T16:59:29.564Z,2.43
2018-04-02T17:01:57.609Z,5.80
2018-04-02T17:04:25.544Z,2.40
2018-04-02T17:06:53.540Z,3.00
2018-04-02T17:09:21.563Z,4.23
2018-04-02T17:11:49.570Z,6.80
2018-04-02T17:14:17.616Z,2.50
2018-04-02T17:16:45.600Z,3.70
2018-04-02T17:19:13.584Z,2.90
2018-04-02T17:21:41.601Z,2.80
2018-04-02T17:24:09.597Z,2.20
2018-04-02T17:26:37.593Z,3.73
2018-04-02T17:29:05.592Z,2.27
2018-04-02T17:31:33.582Z,2.03
2018-04-02T17:34:02.468Z,3.53
2018-04-02T17:36:30.480Z,2.40
2018-04-02T17:38:58.472Z,6.00
2018-04-02T17:41:26.485Z,4.80
2018-04-02T17:43:55.552Z,4.13
2018-04-02T17:46:23.560Z,4.00
2018-04-02T17:48:52.542Z,2.67
2018-04-02T17:51:20.868Z,3.37
2018-04-02T17:53:49.200Z,2.30
2018-04-02T17:56:17.609Z,2.33
2018-04-02T17:58:47.950Z,2.97
2018-04-02T18:01:16.018Z,2.23
2018-04-02T18:03:44.008Z,3.10
2018-04-02T18:06:13.683Z,2.67
2018-04-02T18:08:42.255Z,4.00
2018-04-02T18:11:10.415Z,4.37
2018-04-02T18:13:39.489Z,4.63
2018-04-02T18:16:07.520Z,3.00
2018-04-02T18:18:35.868Z,3.20
2018-04-02T18:21:03.931Z,2.30
2018-04-02T18:23:32.944Z,5.23
2018-04-02T18:26:00.980Z,5.47
2018-04-02T18:28:29.039Z,2.43
2018-04-02T18:30:57.044Z,2.50
2018-04-02T18:33:25.023Z,2.43
2018-04-02T18:35:53.134Z,3.20
2018-04-02T18:38:21.114Z,2.90
2018-04-02T18:40:49.064Z,2.20
2018-04-02T18:43:17.094Z,2.13
2018-04-02T18:45:45.073Z,3.77
2018-04-02T18:48:13.052Z,2.30
2018-04-02T18:50:41.034Z,2.03
2018-04-02T18:53:09.055Z,4.97
2018-04-02T18:55:37.043Z,2.80
2018-04-02T18:58:05.022Z,4.73
2018-04-02T19:00:33.000Z,3.83
2018-04-02T19:03:00.988Z,3.30
2018-04-02T19:05:29.009Z,3.67
2018-04-02T19:07:56.989Z,3.17
2018-04-02T19:10:25.029Z,3.57
2018-04-02T19:12:53.008Z,4.20
2018-04-02T19:15:21.013Z,1.80
2018-04-02T19:17:48.952Z,3.20
2018-04-02T19:20:17.000Z,2.60
2018-04-02T19:22:44.972Z,7.33
2018-04-02T19:25:12.965Z,4.60
2018-04-02T19:27:41.000Z,7.80
2018-04-02T19:30:08.966Z,3.80
2018-04-02T19:32:36.961Z,3.17
2018-04-02T19:35:04.961Z,3.80
2018-04-02T19:37:33.014Z,3.20
2018-04-02T19:40:01.003Z,4.43
2018-04-02T19:42:28.994Z,3.60
2018-04-02T19:44:57.019Z,3.50
2018-04-02T19:47:24.999Z,4.53
2018-04-02T19:49:53.005Z,3.73
2018-04-02T19:52:21.009Z,4.17
2018-04-02T19:54:48.968Z,5.53
2018-04-02T19:57:16.977Z,6.80
2018-04-02T19:59:45.111Z,4.37
2018-04-02T20:02:13.069Z,3.77
2018-04-02T20:04:41.129Z,5.03
2018-04-02T20:07:09.170Z,3.90
2018-04-02T20:09:37.173Z,4.47
2018-04-02T20:12:05.189Z,6.10
2018-04-02T20:14:33.156Z,10.90
2018-04-02T20:17:01.128Z,5.20
2018-04-02T20:19:29.132Z,5.40
2018-04-02T20:21:57.198Z,7.70
2018-04-02T20:24:25.228Z,6.50
2018-04-02T20:26:53.288Z,5.53
2018-04-02T20:29:21.622Z,4.53
2018-04-02T20:31:49.626Z,5.00
2018-04-02T20:34:17.615Z,6.77
2018-04-02T20:36:45.613Z,4.10
2018-04-02T20:39:13.799Z,4.77
2018-04-02T20:41:41.837Z,5.93
2018-04-02T20:44:09.861Z,4.57
2018-04-02T20:46:37.848Z,6.90
2018-04-02T20:49:05.852Z,4.17
2018-04-02T20:51:33.826Z,4.67
2018-04-02T20:54:01.913Z,6.07
2018-04-02T20:56:30.024Z,5.13
2018-04-02T20:58:58.020Z,6.20
2018-04-02T21:01:25.948Z,6.53
2018-04-02T21:03:53.956Z,3.83
2018-04-02T21:06:21.948Z,5.87
2018-04-02T21:08:49.951Z,7.37
2018-04-02T21:11:17.967Z,4.23
2018-04-02T21:13:45.949Z,5.80
2018-04-02T21:16:13.936Z,4.40
2018-04-02T21:18:41.920Z,3.53
2018-04-02T21:21:09.887Z,6.53
2018-04-02T21:23:37.920Z,9.00
2018-04-02T21:26:05.904Z,6.33
2018-04-02T21:28:33.907Z,5.70
2018-04-02T21:31:01.900Z,5.10
2018-04-02T21:33:31.036Z,5.97
2018-04-02T21:36:00.587Z,4.93
2018-04-02T21:38:28.616Z,6.90
2018-04-02T21:40:56.602Z,5.67
2018-04-02T21:43:24.590Z,6.13
2018-04-02T21:45:52.593Z,5.00
2018-04-02T21:48:21.808Z,5.10
2018-04-02T21:50:49.829Z,9.52
2018-04-02T21:53:17.849Z,5.83
2018-04-02T21:55:45.856Z,5.15
2018-04-02T21:58:13.840Z,6.63
2018-04-02T22:00:41.856Z,5.77
2018-04-02T22:03:09.899Z,6.43
2018-04-02T22:05:37.885Z,5.30
2018-04-02T22:08:08.904Z,6.67
2018-04-02T22:10:36.890Z,5.27
2018-04-02T22:13:04.877Z,6.60
2018-04-02T22:15:32.855Z,12.20
2018-04-02T22:18:00.900Z,5.43
2018-04-02T22:20:28.920Z,7.23
2018-04-02T22:22:56.896Z,4.73
2018-04-02T22:25:24.879Z,5.12
2018-04-02T22:27:52.906Z,4.50
2018-04-02T22:30:20.925Z,4.27
2018-04-02T22:32:49.628Z,8.10
2018-04-02T22:35:17.612Z,6.33
2018-04-02T22:37:45.586Z,4.63
2018-04-02T22:40:13.588Z,4.90
2018-04-02T22:42:42.102Z,4.13
2018-04-02T22:45:10.104Z,5.17
2018-04-02T22:47:38.153Z,7.17
2018-04-02T22:50:06.160Z,6.70
2018-04-02T22:52:34.144Z,8.13
2018-04-02T22:55:02.188Z,7.50
2018-04-02T22:57:30.155Z,5.87
2018-04-02T22:59:59.144Z,9.50
2018-04-02T23:02:27.241Z,4.70
2018-04-02T23:04:55.261Z,10.43
2018-04-02T23:07:23.216Z,8.20
2018-04-02T23:09:51.285Z,7.40
2018-04-02T23:12:19.292Z,6.20
2018-04-02T23:14:48.374Z,6.73
2018-04-02T23:17:16.376Z,7.87
2018-04-02T23:19:46.392Z,8.18
2018-04-02T23:22:20.645Z,5.57
2018-04-02T23:24:49.725Z,7.83
2018-04-02T23:27:17.708Z,8.63
2018-04-02T23:29:45.684Z,9.40
2018-04-02T23:32:13.688Z,9.03
2018-04-02T23:34:41.649Z,14.83
2018-04-02T23:37:09.628Z,8.67
2018-04-02T23:39:37.627Z,8.10
2018-04-02T23:42:05.590Z,7.10
2018-04-02T23:44:33.551Z,7.60
2018-04-02T23:47:01.528Z,12.27
2018-04-02T23:49:29.512Z,10.40
2018-04-02T23:51:57.519Z,6.33
2018-04-02T23:54:25.540Z,9.73
2018-04-02T23:56:53.553Z,9.70
2018-04-02T23:59:21.543Z,8.10
